Orio Virtual Team

Volo simulato IFR, VFR, Virtual Airline, tutorial, piani di volo.
Oggi è 18 novembre 2017, 16:45

Tutti gli orari sono UTC+01:00




Apri un nuovo argomento  Rispondi all’argomento  [ 3 messaggi ] 
Autore Messaggio
 Oggetto del messaggio: Lunedi 6 Ottobre
MessaggioInviato: 4 ottobre 2014, 20:21 
Non connesso
Avvoltoio
Avvoltoio

Iscritto il: 26 ottobre 2007, 22:17
Messaggi: 862
Località: Zinasco -,Pavia
Ciao a tutti,

Per chi volesse partecipare Lunedi sera dalle 21.00lt alle 23.00lt saremo in volo (vfr o ifr) su IVAO sugli aeroporti di LIPZ (Venezia Tessera) e LIPQ (Ronchi dei Legionari).

Saranno benvenuti sia voli IFR che VFR e a controllare gli spazi e gli aeroporti in questione ci saranno sia amici di OVT che membri di OVT.

Accludiamo al presente i piani di volo VFR da e per i due aeroporti consigliati ma non obbligatori.

Vi attendiamo numerosi,

Osvaldo - I-OSCO - OVT0198


Allegati:
VFR_061014.rar [28.99 KiB]
Scaricato 98 volte
Top
   
 Oggetto del messaggio: Re: Lunedi 6 Ottobre
MessaggioInviato: 5 ottobre 2014, 14:59 
Non connesso
Gallo
Gallo

Iscritto il: 13 maggio 2014, 14:12
Messaggi: 170
Località: Scerne di Pineto (Teramo)
Ho notato che sia nel flightbag qui del forum e sia quello presente nel calendario, c'è solo il PDV da lipq to lipz. Vi allego un nuovo file per entrambe le tratte vfr con file pnl per fsx e fs9


Allegati:
Evento OVT IVAO.zip [60.51 KiB]
Scaricato 79 volte

_________________
Skype: yuri.marchese

Iuri: I-IUMA

OVT0958
Top
   
 Oggetto del messaggio: Re: Lunedi 6 Ottobre
MessaggioInviato: 6 ottobre 2014, 9:33 
Non connesso
Gallo
Gallo

Iscritto il: 13 maggio 2014, 14:12
Messaggi: 170
Località: Scerne di Pineto (Teramo)
Previsioni Metar e Taf per la giornata di oggi su Venezia e Trieste.



VENEZIAgTESSERA (IT) VFR
METAR LIPZ 060820Z 04010KT 9000 NSC 18/11 Q1015
TAF LIPZ 052300Z 0600/0706 02008KT 9999 FEW050



RONCHI LEGIONARI (IT) VFR
METAR LIPQ 060820Z VRB01KT CAVOK 18/11 Q1016
TAF LIPQ 060500Z 0606/0706 VRB05KT CAVOK BECMG 0610/0612 06012KT BECMG 0617/0619 VRB05KT

_________________
Skype: yuri.marchese

Iuri: I-IUMA

OVT0958


Top
   
Visualizza ultimi messaggi:  Ordina per  
Apri un nuovo argomento  Rispondi all’argomento  [ 3 messaggi ] 

Tutti gli orari sono UTC+01:00


Chi c’è in linea

Visitano il forum: Nessuno e 0 ospiti


Non puoi aprire nuovi argomenti
Non puoi rispondere negli argomenti
Non puoi modificare i tuoi messaggi
Non puoi cancellare i tuoi messaggi
Non puoi inviare allegati

Cerca per:
Vai a:  
cron
Powered by phpBB® Forum Software © phpBB Limited
Traduzione Italiana phpBBItalia.net